Tiempo atmosférico en la estación meteorológica de Arroyo Del Ojanco, Jaén (580 m.)



Fecha
DESCASC
Temp. máxima en grados centígrados (hora)
DESCASC
Temp. mínima en grados centígrados (hora)
DESCASC
Temp. media en grados centígrados
DESCASC
Racha de viento máxima en m/sg (hora)
DESCASC
Velocidad máxima media en intervalos de 10 minutos(hora)
DESCASC
Precipitaciones diarias en mm
DESCASC
Precipitaciones de 00:00 a 06:00 en mm
DESCASC
Precipitaciones de 06:00 a 12:00 en mm
DESCASC
Precipitaciones de 12:00 a 18:00 en mm
DESCASC
Precipitaciones de 18:00 a 24:00 en mm
DESCASC
27-10-2020 16.8 (15:10) 4.3 (07:20) 10.5 -- (--) -- (--) 0 0 0 0 0
26-10-2020 16.4 (16:10) 7.9 (23:10) 12.1 -- (--) -- (--) 9.7 9.6 0.1 0 0
25-10-2020 17.9 (14:10) 9.9 (05:30) 13.9 -- (--) -- (--) 0.3 0 0 0 0.3
24-10-2020 19.8 (17:20) 7.7 (00:00) 13.7 -- (--) -- (--) 0 0 0 0 0
23-10-2020 19.1 (17:20) 12.4 (00:00) 15.8 -- (--) -- (--) 2.4 1.5 0.8 0.1 0
22-10-2020 16.9 (18:20) 13.4 (00:00) 15.1 -- (--) -- (--) 3.7 0 1.4 2.3 0
21-10-2020 23.9 (00:20) 15 (00:00) 19.4 -- (--) -- (--) 6.3 6.2 0.1 0 0
20-10-2020 29.4 (15:30) 14.7 (00:00) 22 -- (--) -- (--) 0 0 0 0 0
19-10-2020 30.2 (17:50) 7.7 (00:00) 19 -- (--) -- (--) 0 0 0 0 0
18-10-2020 26.3 (16:30) 6.6 (00:00) 16.4 -- (--) -- (--) 0 0 0 0 0
17-10-2020 22.5 (17:40) 4.8 (00:00) 13.7 -- (--) -- (--) 0 0 0 0 0
16-10-2020 21.3 (17:10) 5.5 (00:00) 13.4 -- (--) -- (--) 0 0 0 0 0
15-10-2020 21 (17:00) 5.7 (00:00) 13.3 -- (--) -- (--) 0 0 0 0 0
14-10-2020 21 (15:40) 11.3 (00:00) 16.2 -- (--) -- (--) 0 0 0 0 0
13-10-2020 25.5 (17:30) 7.7 (00:00) 16.6 -- (--) -- (--) 0 0 0 0 0
12-10-2020 21.9 (17:00) 7.6 (00:00) 14.7 -- (--) -- (--) 0 0 0 0 0
11-10-2020 24.5 (15:30) 14 (00:00) 19.3 -- (--) -- (--) 0 0 0 0 0
10-10-2020 30.2 (16:40) 12.8 (00:00) 21.5 -- (--) -- (--) 0 0 0 0 0
09-10-2020 30.5 (17:10) 12.8 (00:00) 21.7 -- (--) -- (--) 0 0 0 0 0
08-10-2020 30.5 (17:50) 12.5 (00:00) 21.5 -- (--) -- (--) 0 0 0 0 0
07-10-2020 30.8 (18:30) 11.7 (00:00) 21.2 -- (--) -- (--) 0 0 0 0 0
06-10-2020 27.4 (18:30) 8.7 (00:00) 18 -- (--) -- (--) 0 0 0 0 0
05-10-2020 21.6 (19:00) 9.9 (00:00) 15.8 -- (--) -- (--) 0 0 0 0 0
04-10-2020 18.9 (16:40) 7.3 (00:00) 13.1 -- (--) -- (--) 0 0 0 0 0
03-10-2020 17 (17:40) 8.8 (00:00) 12.9 -- (--) -- (--) 0 0 0 0 0
02-10-2020 -- (--) -- (--) -- -- (--) -- (--) -- 0 0 -- --
01-10-2020 26.3 (17:30) 12.7 (00:00) 19.5 -- (--) -- (--) 0 0 0 0 0
30-09-2020 27.4 (16:30) 12.8 (00:00) 20.1 -- (--) -- (--) 0 0 0 0 0

Gráficas

Temp. máximas Temp. mínimas Temp. medias Precipitaciones Rachas de viento máximas Velocidades máximas media en intervalos de 10 minutos

Datos horarios

Fecha y hora oficial Temperatura (ºC) Velocidad del viento (km/h) Dirección del viento Racha (km/h) Dirección de racha Precipitación (mm) Presión (hPa) Tendencia (hPa) Humedad (%)
2020-10-29 23:00:00 14.4 5 Nordeste 14 Nordeste 0 951 -0.5 82
2020-10-29 22:00:00 15.7 2 Nordeste 7 Este 0 951.5 0.6 74
2020-10-29 21:00:00 17.2 4 Este 15 Nordeste 0 951.3 0.3 65
2020-10-29 20:00:00 18.6 6 Norte 14 Nordeste 0 951.5 0.7 52
2020-10-29 19:00:00 20.7 7 Nordeste 12 Nordeste 0 950.9 0.1 48
2020-10-29 18:00:00 23.6 8 Sudeste 9 Sudeste 0 951 0.1 41
2020-10-29 17:00:00 25.6 4 Oeste 11 Sudoeste 0 950.8 -0.7 36
2020-10-29 16:00:00 25.8 5 Oeste 13 Oeste 0 950.8 -1.1 35
2020-10-29 15:00:00 25.3 5 Noroeste 11 Noroeste 0 950.9 -1.2 36
2020-10-29 14:00:00 24.1 4 Norte 22 Nordeste 0 951.5 -0.4 39
2020-10-29 13:00:00 22.8 8 Nordeste 15 Nordeste 0 951.9 0.6 45
2020-10-29 12:00:00 20.3 2 Nordeste 9 Noroeste 0 952.1 1.7 54
2020-10-29 11:00:00 17.2 4 Nordeste 13 Este 0 951.9 2.4 62
2020-10-29 10:00:00 14.1 5 Norte 14 Nordeste 0 951.3 2.1 75
2020-10-29 09:00:00 11.5 10 Nordeste 18 Nordeste 0 950.4 1.2 86
2020-10-29 08:00:00 9.6 3 Nordeste 16 Nordeste 0 949.5 0.4 93
2020-10-29 07:00:00 9 2 Nordeste 12 Nordeste 0 949.2 0.1 92
2020-10-29 06:00:00 10.5 6 Este 15 Nordeste 0 949.2 0.3 91
2020-10-29 05:00:00 9.6 3 Sudoeste 11 Nordeste 0 949.1 0.1 92
2020-10-29 04:00:00 10.8 5 Sudeste 13 Este 0 949.1 0.1 89
2020-10-29 03:00:00 10.3 5 Nordeste 13 Este 0 948.9 -- 91
2020-10-29 02:00:00 11.2 4 Nordeste 11 Nordeste 0 949 -- 87
2020-10-29 01:00:00 11.6 4 Norte 15 Nordeste 0 949 -- 83
2020-10-29 00:00:00 12.7 14 Nordeste 19 Nordeste 0 949.4 -- 82
2020-10-28 23:00:00 12.3 4 Nordeste 10 Sur 0 949.6 -- 82
2020-10-28 22:00:00 14 0 Calma 14 Este 0 949.6 -- 74
2020-10-28 21:00:00 14.4 7 Nordeste 10 Nordeste 0 949.3 -- 69
2020-10-28 20:00:00 15.7 4 Nordeste 9 Este 0 948.9 -- 64
2020-10-28 19:00:00 17.8 8 Este 11 Nordeste 0 948.7 -- 56
2020-10-28 18:00:00 22.2 0 Calma 8 Sudoeste 0 948.7 -- 42
2020-10-28 17:00:00 23.2 2 Oeste 6 Oeste 0 948.3 -- 37
2020-10-28 16:00:00 22 2 Este 9 Noroeste 0 948.4 -- 38
2020-10-28 15:00:00 21.2 3 Noroeste 9 Nordeste 0 948.1 -- 38
2020-10-28 14:00:00 19.2 5 Nordeste 11 Nordeste 0 948.1 -- 43
2020-10-28 13:00:00 17.5 5 Nordeste 12 Nordeste 0 948.2 -- 48
2020-10-28 12:00:00 15.1 3 Norte 8 Norte 0 948.6 -- 55
2020-10-28 11:00:00 12.9 5 Nordeste 10 Norte 0 948.1 -- 67
2020-10-28 10:00:00 9.4 0 Calma 12 Nordeste 0 947 -- 85
2020-10-28 09:00:00 7.9 3 Nordeste 13 Nordeste 0 946.3 -- 89
2020-10-28 08:00:00 6.4 5 Nordeste 15 Nordeste 0 945.2 -- 93
2020-10-28 07:00:00 6.6 8 Nordeste 12 Este 0 944.7 -- 94
2020-10-28 06:00:00 5.6 5 Sudoeste 9 Sur 0 944.3 -- 94
2020-10-28 05:00:00 6.1 6 Nordeste 13 Nordeste 0 944.6 -- 93
2020-10-28 04:00:00 6.3 4 Nordeste 9 Nordeste 0 944.6 -- 92
2020-10-28 03:00:00 7.3 0 Calma 7 Este 0 944.7 -- 91
2020-10-28 02:00:00 7 0 Calma 6 Sur 0 944.5 -- 89
2020-10-28 01:00:00 8.4 0 Calma 14 Este 0 945 -- 82
2020-10-28 00:00:00 8.5 3 Nordeste 4 Nordeste 0 945.4 -- 84
2020-10-27 23:00:00 9.2 3 Nordeste 4 Nordeste 0 945.7 -- 80
2020-10-27 22:00:00 10 0 Calma 5 Sudeste 0 946 -- 74
2020-10-27 21:00:00 10.6 0 Calma 13 Sur 0 946.2 -- 69
2020-10-27 20:00:00 12.6 7 Sur 13 Sur 0 946.1 -- 57
2020-10-27 19:00:00 13.4 8 Sur 11 Sur 0 945.5 -- 55
2020-10-27 18:00:00 15.4 8 Sudoeste 15 Sudoeste 0 945.5 -- 48
2020-10-27 17:00:00 16.5 8 Sudoeste 20 Oeste 0 945.6 -- 45
2020-10-27 16:00:00 15.9 10 Sudoeste 22 Oeste 0 945.3 -- 47
2020-10-27 15:00:00 16.6 11 Sudoeste -- -- 0 945.5 -- 45
2020-10-27 14:00:00 16.2 10 Sudoeste -- -- 0 946.1 -- 48
2020-10-27 13:00:00 14.2 11 Sudoeste -- -- 0 946.6 -- 50
2020-10-27 12:00:00 13.9 9 Oeste -- -- 0 946.8 -- 56
2020-10-27 11:00:00 11.8 4 Oeste -- -- 0 946.6 -- 72
2020-10-27 10:00:00 8.6 0 Calma -- -- 0 945.7 -- 90
2020-10-27 09:00:00 6 0 Calma -- -- 0 944.7 -- 97
2020-10-27 08:00:00 4.7 0 Calma -- -- 0 944.3 -- 95
2020-10-27 07:00:00 4.7 0 Calma -- -- 0 943.9 -- 95
2020-10-27 06:00:00 4.9 0 Calma -- -- 0 944.1 -- 95
2020-10-27 05:00:00 5.3 0 Calma -- -- 0 943.6 -- 94
2020-10-27 04:00:00 5.6 3 Norte -- -- 0 943.8 -- 93
2020-10-27 03:00:00 6.3 0 Calma -- -- 0 944.4 -- 92
2020-10-27 02:00:00 6.7 0 Calma -- -- 0 945.1 -- 91
2020-10-27 01:00:00 7.6 0 Calma -- -- 0 945.4 -- 91
2020-10-27 00:00:00 8 0 Calma -- -- 0 945.6 -- 88
2020-10-26 23:00:00 8 0 Calma -- -- 0 945.8 -- 85
2020-10-26 22:00:00 8.6 0 Calma -- -- 0 945.6 -- 82
2020-10-26 21:00:00 9.5 0 Calma -- -- 0 945.1 -- 75
2020-10-26 20:00:00 10.6 8 Sudeste -- -- 0 945.2 -- 67
2020-10-26 19:00:00 11.7 4 Sudeste -- -- 0 945 -- 63
2020-10-26 18:00:00 14.5 0 Calma -- -- 0 944.7 -- 51
2020-10-26 17:00:00 15.3 9 Oeste -- -- 0 944.5 -- 47
2020-10-26 16:00:00 15.9 13 Oeste -- -- 0 944.2 -- 49
2020-10-26 15:00:00 14.8 10 Oeste -- -- 0 943.9 -- 50
2020-10-26 14:00:00 14 8 Oeste -- -- 0 943.7 -- 58
2020-10-26 13:00:00 13.3 12 Sudoeste -- -- 0 944.1 -- 63
2020-10-26 12:00:00 11.9 12 Sudoeste -- -- 0 944.3 -- 68
2020-10-26 11:00:00 11.8 9 Sudoeste -- -- 0 944 -- 74
2020-10-26 10:00:00 10.7 8 Oeste -- -- 0 943.6 -- 76
2020-10-26 09:00:00 10.2 6 Sudoeste -- -- 0.1 943 -- 94
2020-10-26 08:00:00 9.8 12 Sudoeste -- -- 0 941.7 -- 94
2020-10-26 07:00:00 10.3 12 Sudoeste -- -- 0 940.9 -- 94
2020-10-26 06:00:00 10.7 14 Sudoeste -- -- 0 941.1 -- 92
2020-10-26 05:00:00 11.6 13 Sudoeste -- -- 0.4 940.8 -- 94
2020-10-26 04:00:00 11.7 10 Sur -- -- 0.2 940.5 -- 91
2020-10-26 03:00:00 11.4 5 Oeste -- -- 3.1 940.6 -- 92
2020-10-26 02:00:00 13 2 Sur -- -- 4 939.6 -- 96
2020-10-26 01:00:00 12.7 9 Oeste -- -- 1.9 939.7 -- 95
2020-10-26 00:00:00 12.6 17 Sudoeste -- -- 0.3 940.2 -- 92
2020-10-25 23:00:00 14.5 27 Sudoeste -- -- 0 941 -- 73
2020-10-25 22:00:00 14.9 26 Sudoeste -- -- 0 941.4 -- 70
2020-10-25 21:00:00 15.3 23 Sudoeste -- -- 0 942.1 -- 66
2020-10-25 20:00:00 15.5 17 Sudoeste -- -- 0 942.2 -- 63
2020-10-25 19:00:00 15.1 15 Sudoeste -- -- 0 943 -- 66
2020-10-25 18:00:00 15.7 15 Sudoeste -- -- 0 943.2 -- 62
2020-10-25 17:00:00 16 19 Sudoeste -- -- 0 943.5 -- 61
2020-10-25 16:00:00 17 22 Sudoeste -- -- 0 943.9 -- 55
2020-10-25 15:00:00 17.6 25 Sudoeste -- -- 0 944.5 -- 51
2020-10-25 14:00:00 17.3 21 Sudoeste -- -- 0 945.2 -- 57
2020-10-25 13:00:00 16.7 14 Oeste -- -- 0 946 -- 61
2020-10-25 12:00:00 15.7 19 Sudoeste -- -- 0 946.5 -- 64
2020-10-25 11:00:00 15.3 15 Sudoeste -- -- 0 946.4 -- 69
2020-10-25 10:00:00 13.2 4 Sudoeste -- -- 0 946.5 -- 84
2020-10-25 09:00:00 12.8 6 Sudoeste -- -- 0 946.6 -- 86
2020-10-25 08:00:00 11.5 5 Sur -- -- 0 946.2 -- 88
2020-10-25 07:00:00 10.7 4 Nordeste -- -- 0 946 -- 88
2020-10-25 06:00:00 10.6 6 Sudeste -- -- 0 945.9 -- 91
2020-10-25 05:00:00 10.5 0 Calma -- -- 0 945.8 -- 91
2020-10-25 04:00:00 10.4 0 Calma -- -- 0 946.7 -- 88
2020-10-25 03:00:00 10.4 0 Calma -- -- 0 947.4 -- 87
2020-10-25 02:00:00 10.9 2 Nordeste -- -- 0 948.1 -- 84
2020-10-25 01:00:00 11.2 0 Calma -- -- 0 948.7 -- 78
2020-10-25 00:00:00 13.2 10 Sur -- -- 0 949 -- 68
2020-10-24 23:00:00 14.1 11 Sur -- -- 0 949.7 -- 63
2020-10-24 22:00:00 14.8 11 Sur -- -- 0 949.6 -- 57
2020-10-24 21:00:00 14.7 12 Sur -- -- 0 949.7 -- 55
2020-10-24 20:00:00 15.4 12 Sur -- -- 0 949.6 -- 51
2020-10-24 19:00:00 17.7 11 Sudoeste -- -- 0 949.7 -- 44
2020-10-24 18:00:00 19.1 12 Sudoeste -- -- 0 950 -- 43
2020-10-24 17:00:00 18.8 14 Oeste -- -- 0 950.3 -- 48
2020-10-24 16:00:00 19.2 14 Sudoeste -- -- 0 950.2 -- 49
2020-10-24 15:00:00 18.6 14 Oeste -- -- 0 950.7 -- 50
2020-10-24 14:00:00 18.4 9 Oeste -- -- 0 951.3 -- 52
2020-10-24 13:00:00 -- -- -- -- -- -- -- -- --
2020-10-24 12:00:00 14.8 3 Noroeste -- -- 0 951.6 -- 74
2020-10-24 11:00:00 11.3 3 Norte -- -- 0 951.4 -- 94
2020-10-24 10:00:00 8.7 0 Calma -- -- 0 950.5 -- 95
2020-10-24 09:00:00 8.1 0 Calma -- -- 0 949.7 -- 95
2020-10-24 08:00:00 8.2 0 Calma -- -- 0 949.6 -- 94
2020-10-24 07:00:00 8.9 0 Calma -- -- 0 950 -- 94
2020-10-24 06:00:00 9.3 0 Calma -- -- 0 950.1 -- 93
2020-10-24 05:00:00 9.6 0 Calma -- -- 0 950.4 -- 93
2020-10-24 04:00:00 10 0 Calma -- -- 0 950.5 -- 91
2020-10-24 03:00:00 11.6 6 Sur -- -- 0 950.8 -- 85
2020-10-24 02:00:00 11.6 2 Sudeste -- -- 0 950.9 -- 84
2020-10-24 01:00:00 13.2 0 Calma -- -- 0 951.2 -- 76
2020-10-24 00:00:00 14 6 Sur -- -- 0 951.2 -- 72
2020-10-23 23:00:00 14.7 8 Sur -- -- 0 950.6 -- 64
2020-10-23 22:00:00 14.3 10 Sur -- -- 0 950.4 -- 64
2020-10-23 21:00:00 15 6 Sudoeste -- -- 0 950.1 -- 61
2020-10-23 20:00:00 15.2 10 Sur -- -- 0 949.7 -- 56
2020-10-23 19:00:00 17 13 Sudoeste -- -- 0 949.5 -- 49
2020-10-23 18:00:00 18.3 16 Sudoeste -- -- 0 949.4 -- 47
2020-10-23 17:00:00 18.4 19 Sudoeste -- -- 0 949.1 -- 48
2020-10-23 16:00:00 18.2 13 Oeste -- -- 0 948.7 -- 54
2020-10-23 15:00:00 18.8 12 Sudoeste -- -- 0 948.8 -- 51
2020-10-23 14:00:00 16 14 Oeste -- -- 0.1 948.9 -- 61
2020-10-23 13:00:00 15.2 11 Oeste -- -- 0 949.1 -- 70
2020-10-23 12:00:00 15.5 15 Sudoeste -- -- 0 948.8 -- 74
2020-10-23 11:00:00 14 8 Sudoeste -- -- 0 948.5 -- 88
2020-10-23 10:00:00 13 0 Calma -- -- 0 948 -- 94
2020-10-23 09:00:00 12.6 2 Sudoeste -- -- 0 946.8 -- 93
2020-10-23 08:00:00 12.8 10 Sudoeste -- -- 0 946.3 -- 93
2020-10-23 07:00:00 13.1 11 Sudoeste -- -- 0.8 945.9 -- 94
2020-10-23 06:00:00 13.7 6 Sudoeste -- -- 0.5 945.5 -- 92
2020-10-23 05:00:00 13.7 8 Sur -- -- 0 945 -- 93
2020-10-23 04:00:00 13.8 9 Sur -- -- 0.1 944.7 -- 93
2020-10-23 03:00:00 14.1 9 Sudoeste -- -- 0 944.8 -- 93
2020-10-23 02:00:00 14.2 14 Sudoeste -- -- 0.4 944.4 -- 93
2020-10-23 01:00:00 14.2 0 Calma -- -- 0.5 943.8 -- 93
2020-10-23 00:00:00 14.1 0 Calma -- -- 0 943.1 -- 93
2020-10-22 23:00:00 14 3 Noroeste -- -- 0 942.7 -- 90
2020-10-22 22:00:00 14 8 Sudeste -- -- 0 942.2 -- 88
2020-10-22 21:00:00 14.8 2 Norte -- -- 0 942 -- 88
2020-10-22 20:00:00 15.3 5 Sudeste -- -- 0 941.7 -- 91
2020-10-22 19:00:00 16.4 0 Calma -- -- 0 941 -- 90
2020-10-22 18:00:00 16.4 0 Calma -- -- 0.4 940.8 -- 88
2020-10-22 17:00:00 16.1 0 Calma -- -- 0.1 940.6 -- 88
2020-10-22 16:00:00 16.2 0 Calma -- -- 0.3 940.3 -- 86
2020-10-22 15:00:00 15.9 0 Calma -- -- 0.7 940.5 -- 86
2020-10-22 14:00:00 15.4 4 Norte -- -- 0.2 941 -- 88
2020-10-22 13:00:00 15.5 3 Nordeste -- -- 0.6 941.1 -- 88
2020-10-22 12:00:00 15 0 Calma -- -- 0 941 -- 93
2020-10-22 11:00:00 14.2 7 Norte -- -- 0.1 940.7 -- 94
2020-10-22 10:00:00 13.6 9 Norte -- -- 1.3 940.4 -- 93
2020-10-22 09:00:00 14 5 Sur -- -- 0 939.5 -- 86
2020-10-22 08:00:00 13.7 0 Calma -- -- 0 938.5 -- 85
2020-10-22 07:00:00 14.1 0 Calma -- -- 0 938.6 -- 82
2020-10-22 06:00:00 14 0 Calma -- -- 0 939 -- 84
2020-10-22 05:00:00 14.3 2 Este -- -- 0 939.2 -- 85
2020-10-22 04:00:00 15.2 0 Calma -- -- 0 939.7 -- 79
2020-10-22 03:00:00 15.2 0 Calma -- -- 0 939.6 -- 82
2020-10-22 02:00:00 15.7 3 Sudeste -- -- 0 939.7 -- 80
2020-10-22 01:00:00 15.4 0 Calma -- -- 0 939.7 -- 81
2020-10-22 00:00:00 15.2 0 Calma -- -- 0 939.4 -- 82
2020-10-21 23:00:00 15.6 5 Sudeste -- -- 0 939.6 -- 80
2020-10-21 22:00:00 16.5 2 Este -- -- 0 939.6 -- 78
2020-10-21 21:00:00 17.3 3 Este -- -- 0 939.8 -- 72
2020-10-21 20:00:00 17.6 9 Sur -- -- 0 939.7 -- 72
2020-10-21 19:00:00 19.1 0 Calma -- -- 0 939.3 -- 65
2020-10-21 18:00:00 19.7 7 Oeste -- -- 0 939.4 -- 59
2020-10-21 17:00:00 20.3 11 Oeste -- -- 0 939.5 -- 55
2020-10-21 16:00:00 21.1 6 Oeste -- -- 0 939.3 -- 54
2020-10-21 15:00:00 20.1 10 Oeste -- -- 0 939.5 -- 55
2020-10-21 14:00:00 20.2 10 Sudoeste -- -- 0 939.7 -- 60
2020-10-21 13:00:00 19.1 2 Sudoeste -- -- 0 939.7 -- 72
2020-10-21 12:00:00 17.5 3 Norte -- -- 0 939.5 -- 84
2020-10-21 11:00:00 17.1 0 Calma -- -- 0 939.3 -- 88
2020-10-21 10:00:00 16.2 0 Calma -- -- 0 938.4 -- 92
2020-10-21 09:00:00 15.3 0 Calma -- -- 0 937.7 -- 91
2020-10-21 08:00:00 15.4 7 Sudeste -- -- 0 937 -- 90
2020-10-21 07:00:00 15.4 3 Sudeste -- -- 0.1 936.9 -- 93
2020-10-21 06:00:00 15.5 2 Este -- -- 0 936.6 -- 94
2020-10-21 05:00:00 15.8 0 Calma -- -- 0.1 936.5 -- 95
2020-10-21 04:00:00 16 6 Sur -- -- 4 936.6 -- 95
2020-10-21 03:00:00 16.2 8 Sudoeste -- -- 1 937 -- 94
2020-10-21 02:00:00 16.9 17 Oeste -- -- 1.1 938.3 -- 91
2020-10-21 01:00:00 23.2 24 Sudoeste -- -- 0 937.1 -- 44
2020-10-21 00:00:00 22.9 13 Sudoeste -- -- 0 936.4 -- 43
2020-10-20 23:00:00 23.5 9 Sudoeste -- -- 0 935.5 -- 42
2020-10-20 22:00:00 26.2 17 Sur -- -- 0 935.1 -- 37
2020-10-20 21:00:00 26.9 23 Sudoeste -- -- 0 935.5 -- 36
2020-10-20 20:00:00 26.9 19 Sudoeste -- -- 0 935.5 -- 36
2020-10-20 19:00:00 27.9 28 Sudoeste -- -- 0 934.6 -- 36
2020-10-20 18:00:00 27.3 13 Sudoeste -- -- 0 935.2 -- 36
2020-10-20 17:00:00 28.8 14 Sur -- -- 0 936.2 -- 33
2020-10-20 16:00:00 28.2 17 Oeste -- -- 0 936.6 -- 36
2020-10-20 15:00:00 29.1 17 Sudoeste -- -- 0 937.7 -- 36
2020-10-20 14:00:00 27.8 17 Sudoeste -- -- 0 938.8 -- 39
2020-10-20 13:00:00 23.9 3 Oeste -- -- 0 940.1 -- 48
2020-10-20 12:00:00 21.5 0 Calma -- -- 0 940.1 -- 51
2020-10-20 11:00:00 19.7 0 Calma -- -- 0 940.3 -- 54
2020-10-20 10:00:00 17.5 0 Calma -- -- 0 939.5 -- 57
2020-10-20 09:00:00 15.6 2 Noroeste -- -- 0 939.3 -1.3 56
2020-10-20 08:00:00 17.1 0 Calma -- -- 0 939.9 -- 54
2020-10-20 07:00:00 15.9 0 Calma -- -- 0 940.1 -- 57
2020-10-20 06:00:00 16.9 3 Nordeste -- -- 0 940.6 -1 53
2020-10-20 05:00:00 18.3 0 Calma -- -- 0 941.3 -1 49
2020-10-20 04:00:00 18.2 5 Sur -- -- 0 941.2 -- 47
2020-10-20 03:00:00 17.5 0 Calma -- -- 0 941.6 -1 47
2020-10-20 02:00:00 19.6 0 Calma -- -- 0 942.3 -0.8 43
2020-10-20 01:00:00 20.1 0 Calma -- -- 0 942.5 -- 42
2020-10-20 00:00:00 20.2 0 Calma -- -- 0 942.6 -0.4 41
2020-10-19 23:00:00 21.5 5 Nordeste -- -- 0 943.1 0.8 38
2020-10-19 22:00:00 21.9 0 Calma -- -- 0 943.1 -- 36
2020-10-19 21:00:00 23.3 8 Sudoeste -- -- 0 943 -- 34
2020-10-19 20:00:00 25.2 14 Sudeste -- -- 0 942.3 -0.5 31
2020-10-19 19:00:00 27.2 11 Sudoeste -- -- 0 942.6 -- 30
2020-10-19 18:00:00 29.6 15 Sudoeste -- -- 0 942.7 -- 30
2020-10-19 17:00:00 29.8 8 Oeste -- -- 0 942.8 -- 33
2020-10-19 16:00:00 28.2 7 Oeste -- -- 0 943 -- 35
2020-10-19 15:00:00 26.5 2 Noroeste -- -- 0 943.8 -- 35
2020-10-19 14:00:00 24.2 2 Norte -- -- 0 944.1 -- 39
2020-10-19 13:00:00 21 0 Calma -- -- 0 945 -- 47
2020-10-19 12:00:00 17.2 0 Calma -- -- 0 945.2 -- 55
2020-10-19 11:00:00 13.7 0 Calma -- -- 0 944.7 -- 67
2020-10-19 10:00:00 11.2 0 Calma -- -- 0 943.9 -- 73
2020-10-19 09:00:00 8.4 0 Calma -- -- 0 942.9 -- 78
2020-10-19 08:00:00 7.8 0 Calma -- -- 0 942.5 -- 78
2020-10-19 07:00:00 8.6 0 Calma -- -- 0 943 -- 74
2020-10-19 06:00:00 9.2 0 Calma -- -- 0 943.1 -- 70
2020-10-19 05:00:00 10.1 0 Calma -- -- 0 943.8 -- 64
2020-10-19 04:00:00 11.2 0 Calma -- -- 0 944.6 -- 61
2020-10-19 03:00:00 12.4 0 Calma -- -- 0 944.8 -- 57
2020-10-19 02:00:00 13.1 0 Calma -- -- 0 945.1 -- 54
2020-10-19 01:00:00 13.7 0 Calma -- -- 0 945.4 -- 51
2020-10-19 00:00:00 15 0 Calma -- -- 0 945.5 -- 48
2020-10-18 23:00:00 15.2 9 Sur -- -- 0 945.2 -- 45
2020-10-18 22:00:00 18 0 Calma -- -- 0 945 -- 39
2020-10-18 21:00:00 18.2 0 Calma -- -- 0 944.8 -- 37
2020-10-18 20:00:00 21.7 8 Sur -- -- 0 944.8 -- 33
2020-10-18 19:00:00 24.3 0 Calma -- -- 0 944.6 -- 32
2020-10-18 18:00:00 25.9 6 Sudoeste -- -- 0 944.8 -- 31
2020-10-18 17:00:00 25.9 9 Sudoeste -- -- 0 945.1 -- 31
2020-10-18 16:00:00 25.7 6 Sudoeste -- -- 0 945 -- 31
2020-10-18 15:00:00 24.9 4 Sudoeste -- -- 0 945.3 -- 33
2020-10-18 14:00:00 22.8 0 Calma -- -- 0 945.9 -- 39
2020-10-18 13:00:00 20 5 Noroeste -- -- 0 945.9 -- 47
2020-10-18 12:00:00 17.1 2 Norte -- -- 0 946.4 -- 51
2020-10-18 11:00:00 13.6 0 Calma -- -- 0 945.8 -- 60
2020-10-18 10:00:00 9.5 4 Nordeste -- -- 0 944.6 -- 72
2020-10-18 09:00:00 7.1 0 Calma -- -- 0 943.7 -- 78
2020-10-18 08:00:00 7 0 Calma -- -- 0 943.2 -- 78
2020-10-18 07:00:00 7.4 0 Calma -- -- 0 943.2 -- 74
2020-10-18 06:00:00 7.9 0 Calma -- -- 0 943.5 -- 70
2020-10-18 05:00:00 8.4 6 Nordeste -- -- 0 943.3 -- 69
2020-10-18 04:00:00 9.4 8 Nordeste -- -- 0 943.3 -- 66
2020-10-18 03:00:00 9.3 0 Calma -- -- 0 943.9 -- 64
2020-10-18 02:00:00 10.1 0 Calma -- -- 0 944.1 -- 61
2020-10-18 01:00:00 10.8 0 Calma -- -- 0 944.1 -- 59
2020-10-18 00:00:00 11.9 0 Calma -- -- 0 944.4 -- 55
2020-10-17 23:00:00 13.4 0 Calma -- -- 0 944.3 -- 51
2020-10-17 22:00:00 13.9 0 Calma -- -- 0 944.1 -- 49
2020-10-17 21:00:00 16.4 0 Calma -- -- 0 944.1 -- 44
2020-10-17 20:00:00 18 7 Sudeste -- -- 0 943.8 -- 42
2020-10-17 19:00:00 21.2 5 Sudoeste -- -- 0 943.6 -- 38
2020-10-17 18:00:00 21.9 8 Sudoeste -- -- 0 943.7 -- 38
2020-10-17 17:00:00 21.5 12 Sudoeste -- -- 0 943.6 -- 38
2020-10-17 16:00:00 21 11 Sudoeste -- -- 0 943.5 -- 39
2020-10-17 15:00:00 21 5 Sudoeste -- -- 0 943.9 -- 41
2020-10-17 14:00:00 19.7 5 Sur -- -- 0 944.2 -- 45
2020-10-17 13:00:00 17.8 9 Oeste -- -- 0 944.5 -- 50
2020-10-17 12:00:00 15.2 3 Noroeste -- -- 0 944 -- 55
2020-10-17 11:00:00 11.9 0 Calma -- -- 0 943 -- 64
2020-10-17 10:00:00 8.3 0 Calma -- -- 0 942.3 -- 74
2020-10-17 09:00:00 5.5 0 Calma -- -- 0 941.1 -- 81
2020-10-17 08:00:00 4.9 0 Calma -- -- 0 940.9 -- 80
2020-10-17 07:00:00 5.7 0 Calma -- -- 0 940.8 -- 76
2020-10-17 06:00:00 6.2 0 Calma -- -- 0 940.5 -- 73
2020-10-17 05:00:00 7 6 Nordeste -- -- 0 940.6 -- 69
2020-10-17 04:00:00 7.5 0 Calma -- -- 0 940.8 -- 67
2020-10-17 03:00:00 8.2 0 Calma -- -- 0 941.1 -- 64
2020-10-17 02:00:00 8.8 0 Calma -- -- 0 941.5 -- 61
2020-10-17 01:00:00 10 0 Calma -- -- 0 942.3 -- 56
2020-10-17 00:00:00 10.4 0 Calma -- -- 0 942.7 -- 54
2020-10-16 23:00:00 11.5 0 Calma -- -- 0 943.2 -- 50
2020-10-16 22:00:00 13.2 0 Calma -- -- 0 943.3 -- 47
2020-10-16 21:00:00 15.1 2 Nordeste -- -- 0 943.1 -- 43
2020-10-16 20:00:00 16.7 6 Nordeste -- -- 0 943 -- 42
2020-10-16 19:00:00 20.2 5 Sudoeste -- -- 0 942.6 -- 37
2020-10-16 18:00:00 21 6 Oeste -- -- 0 942.4 -- 37
2020-10-16 17:00:00 21 7 Noroeste -- -- 0 942.5 -- 37
2020-10-16 16:00:00 20.4 10 Sudoeste -- -- 0 942.9 -- 39
2020-10-16 15:00:00 20 8 Sudoeste -- -- 0 943.4 -- 41
2020-10-16 14:00:00 19.1 5 Oeste -- -- 0 943.9 -- 42
2020-10-16 13:00:00 17.1 4 Nordeste -- -- 0 944.2 -- 45
2020-10-16 12:00:00 15.2 9 Nordeste -- -- 0 944.2 -- 50
2020-10-16 11:00:00 11.8 10 Nordeste -- -- 0 943.7 2.3 63
2020-10-16 10:00:00 8.7 7 Nordeste -- -- 0 942.6 1 73
2020-10-16 09:00:00 5.8 5 Nordeste -- -- 0 941.6 0.4 80
2020-10-16 08:00:00 7.2 12 Nordeste -- -- 0 941.4 -- 75
2020-10-16 07:00:00 7 7 Norte -- -- 0 941.6 -- 74
2020-10-16 06:00:00 6.8 0 Calma -- -- 0 941.2 -- 74
2020-10-16 05:00:00 7.7 0 Calma -- -- 0 941.2 -- 69
2020-10-16 04:00:00 8.9 4 Nordeste -- -- 0 942 -- 64
2020-10-16 03:00:00 9.3 3 Nordeste -- -- 0 942.4 -- 62
2020-10-16 02:00:00 10.2 4 Norte -- -- 0 942.6 -- 58
2020-10-16 01:00:00 12.2 8 Nordeste -- -- 0 942.7 -- 53
2020-10-16 00:00:00 12.8 7 Nordeste -- -- 0 942.9 -- 51
2020-10-15 23:00:00 13.6 3 Este -- -- 0 942.7 -- 49
2020-10-15 22:00:00 14.5 0 Calma -- -- 0 942.7 -- 47
2020-10-15 21:00:00 15.9 8 Este -- -- 0 942.6 -- 44
2020-10-15 20:00:00 16.2 8 Este -- -- 0 942.4 -- 43
2020-10-15 19:00:00 18.5 10 Norte -- -- 0 942 -- 41
2020-10-15 18:00:00 20.3 8 Norte -- -- 0 941.9 -0.5 39
2020-10-15 17:00:00 20.4 9 Noroeste -- -- 0 942 -- 39
2020-10-15 16:00:00 20.2 5 Noroeste -- -- 0 942.1 -- 41
2020-10-15 15:00:00 19 2 Nordeste -- -- 0 942.4 -- 43
2020-10-15 14:00:00 18.4 6 Sudoeste -- -- 0 943 -- 45
2020-10-15 13:00:00 16.9 6 Este -- -- 0 943.3 -- 48
2020-10-15 12:00:00 15 7 Norte -- -- 0 943.3 -- 54
2020-10-15 11:00:00 12 5 Nordeste -- -- 0 943 -- 62
2020-10-15 10:00:00 9.1 5 Nordeste -- -- 0 941.8 -- 69
2020-10-15 09:00:00 6 0 Calma -- -- 0 940.7 -- 80
2020-10-15 08:00:00 6.5 0 Calma -- -- 0 940.4 -- 76
2020-10-15 07:00:00 6.2 0 Calma -- -- 0 940 -- 76
2020-10-15 06:00:00 6.8 6 Nordeste -- -- 0 939.6 -- 74
2020-10-15 05:00:00 7 0 Calma -- -- 0 939.7 -- 70
2020-10-15 04:00:00 8 3 Nordeste -- -- 0 940.5 -- 67
2020-10-15 03:00:00 9.1 2 Norte -- -- 0 940.9 -- 62
2020-10-15 02:00:00 10 0 Calma -- -- 0 941 -- 58
2020-10-15 01:00:00 10.1 0 Calma -- -- 0 941.1 -- 57
2020-10-15 00:00:00 11.3 0 Calma -- -- 0 940.9 -- 54
2020-10-14 23:00:00 13.2 0 Calma -- -- 0 940.9 -- 49
2020-10-14 22:00:00 14.1 3 Este -- -- 0 940.6 -- 48
2020-10-14 21:00:00 15.6 3 Nordeste -- -- 0 940.3 -- 45
2020-10-14 20:00:00 16.7 3 Nordeste -- -- 0 939.7 -- 43
2020-10-14 19:00:00 18.8 11 Norte -- -- 0 939.5 -- 39
2020-10-14 18:00:00 19.8 13 Norte -- -- 0 939.2 -- 39
2020-10-14 17:00:00 20 15 Norte -- -- 0 938.5 -- 43
2020-10-14 16:00:00 20.4 10 Noroeste -- -- 0 938.3 -- 45
2020-10-14 15:00:00 18.9 8 Oeste -- -- 0 938.2 -- 54
2020-10-14 14:00:00 19.5 6 Sudoeste -- -- 0 938.5 -- 56
2020-10-14 13:00:00 17.7 7 Sudoeste -- -- 0 938.5 -- 60
2020-10-14 12:00:00 14.9 10 Oeste -- -- 0 938.5 -- 65
2020-10-14 11:00:00 14.2 8 Sudoeste -- -- 0 938.1 -- 64
2020-10-14 10:00:00 13.6 7 Oeste -- -- 0 938.2 -- 62
2020-10-14 09:00:00 12.6 0 Calma -- -- 0 937.5 -- 63
2020-10-14 08:00:00 13.7 9 Sudoeste -- -- 0 937.4 -- 58
2020-10-14 07:00:00 13.6 9 Sur -- -- 0 937.2 -- 60
2020-10-14 06:00:00 13.6 10 Sudoeste -- -- 0 937.1 -- 60
2020-10-14 05:00:00 14.5 5 Sudoeste -- -- 0 937.3 -- 56
2020-10-14 04:00:00 15.3 7 Sudoeste -- -- 0 938.3 -- 55
2020-10-14 03:00:00 15.5 2 Sur -- -- 0 938.9 -- 54
2020-10-14 02:00:00 16.5 4 Sudoeste -- -- 0 939.4 -- 50
2020-10-14 01:00:00 18 8 Sur -- -- 0 939.7 -- 48
2020-10-14 00:00:00 18.4 8 Sur -- -- 0 940.4 -- 47
2020-10-13 23:00:00 19.1 4 Sur -- -- 0 940.7 -- 47
2020-10-13 22:00:00 19.8 10 Sur -- -- 0 940.6 -- 47
2020-10-13 21:00:00 20.3 11 Sur -- -- 0 940.6 -- 45
2020-10-13 20:00:00 21.1 12 Sur -- -- 0 940.6 -- 43
2020-10-13 19:00:00 23.7 13 Sudoeste -- -- 0 940.9 -- 39
2020-10-13 18:00:00 24.5 14 Sudoeste -- -- 0 941.4 -- 39
2020-10-13 17:00:00 25.1 12 Sudoeste -- -- 0 941.8 -- 39
2020-10-13 16:00:00 24.3 7 Sudoeste -- -- 0 942.6 -- 41
2020-10-13 15:00:00 23.7 5 Sudoeste -- -- 0 943.6 -- 42
2020-10-13 14:00:00 21.5 3 Norte -- -- 0 944.3 -- 42
2020-10-13 13:00:00 19.8 3 Oeste -- -- 0 944.9 -- 45
2020-10-13 12:00:00 16 0 Calma -- -- 0 944.6 1.3 56
2020-10-13 11:00:00 13.2 2 Nordeste -- -- 0 944.5 -- 64
2020-10-13 10:00:00 -- -- -- -- -- -- -- -- --
2020-10-13 09:00:00 8.1 6 Este -- -- 0 943.3 -- 75
2020-10-13 08:00:00 8.2 4 Nordeste -- -- 0 943.2 -- 74
2020-10-13 07:00:00 8.7 12 Nordeste -- -- 0 943.2 -- 73
2020-10-13 06:00:00 8.8 7 Nordeste -- -- 0 943.5 -1.2 72
2020-10-13 05:00:00 8.1 0 Calma -- -- 0 943.6 -- 72
2020-10-13 04:00:00 -- -- -- -- -- -- -- -- --
2020-10-13 03:00:00 10.6 9 Nordeste -- -- 0 944.7 -2.1 62
2020-10-13 02:00:00 10.2 0 Calma -- -- 0 945.5 -- 61
2020-10-13 01:00:00 -- -- -- -- -- -- -- -- --
2020-10-13 00:00:00 12.3 0 Calma -- -- 0 946.8 -0.9 53
2020-10-12 23:00:00 13.8 0 Calma -- -- 0 947.1 -- 49
2020-10-12 22:00:00 15.7 6 Nordeste -- -- 0 947.3 0.4 44
2020-10-12 21:00:00 16.1 3 Nordeste -- -- 0 947.7 -- 43
2020-10-12 20:00:00 17.3 3 Este -- -- 0 947.2 0.2 39
2020-10-12 19:00:00 20.4 8 Norte -- -- 0 946.9 -- 35
2020-10-12 18:00:00 -- -- -- -- -- -- -- -- --
2020-10-12 17:00:00 21.3 3 Oeste -- -- 0 947 -- 36
2020-10-12 16:00:00 20 8 Norte -- -- 0 947.2 -- 37
2020-10-12 15:00:00 18.7 4 Nordeste -- -- 0 947.8 -1 41
2020-10-12 14:00:00 18 6 Noroeste -- -- 0 948.5 -- 43
2020-10-12 13:00:00 16.4 5 Nordeste -- -- 0 948.5 0 49
2020-10-12 12:00:00 14.2 12 Nordeste -- -- 0 948.8 -- 55
2020-10-12 11:00:00 12.7 11 Nordeste -- -- 0 948.8 -- 61
2020-10-12 10:00:00 10.9 15 Nordeste -- -- 0 948.5 -- 66
2020-10-12 09:00:00 7.6 12 Nordeste -- -- 0 947.3 -- 74
2020-10-12 08:00:00 8.1 3 Norte -- -- 0 947.6 -0.5 70
2020-10-12 07:00:00 8.5 0 Calma -- -- 0 947.9 -- 67
2020-10-12 06:00:00 9.4 4 Nordeste -- -- 0 948.1 -0.4 62
2020-10-12 05:00:00 10.8 3 Nordeste -- -- 0 948.1 -- 56
2020-10-12 04:00:00 -- -- -- -- -- -- -- -- --
2020-10-12 03:00:00 12.2 9 Nordeste -- -- 0 948.5 -- 49
2020-10-12 02:00:00 12.1 0 Calma -- -- 0 948.6 -0.1 48
2020-10-12 01:00:00 13.2 7 Nordeste -- -- 0 949.2 -- 43
2020-10-12 00:00:00 14.2 4 Nordeste -- -- 0 949 -- 39
2020-10-11 23:00:00 16.7 13 Nordeste -- -- 0 948.7 -- 36
2020-10-11 22:00:00 16.7 13 Nordeste -- -- 0 948.5 -- 33
2020-10-11 21:00:00 -- -- -- -- -- -- -- -- --
2020-10-11 20:00:00 -- -- -- -- -- -- -- -- --
2020-10-11 19:00:00 21.5 13 Norte -- -- 0 947.9 -- 26
2020-10-11 18:00:00 22.3 16 Nordeste -- -- 0 947.4 -0.6 25
2020-10-11 17:00:00 23.1 14 Norte -- -- 0 947.6 -- 24
2020-10-11 16:00:00 23.8 14 Norte -- -- 0 947.6 -- 26
2020-10-11 15:00:00 23.9 11 Norte -- -- 0 948 -- 28
2020-10-11 14:00:00 23.1 8 Este -- -- 0 948.5 -- 28
2020-10-11 13:00:00 21.6 13 Nordeste -- -- 0 948.8 -- 36
2020-10-11 12:00:00 20.1 13 Norte -- -- 0 948.5 -- 56
2020-10-11 11:00:00 18.5 8 Nordeste -- -- 0 948.3 -- 69
2020-10-11 10:00:00 16.6 4 Nordeste -- -- 0 947.5 -- 81
2020-10-11 09:00:00 14.5 6 Nordeste -- -- 0 946.7 -- 91
2020-10-11 08:00:00 14.4 5 Nordeste -- -- 0 946.3 -- 93
2020-10-11 07:00:00 14.3 3 Nordeste -- -- 0 946.2 -- 93
2020-10-11 06:00:00 15.1 3 Sudeste -- -- 0 946.1 -- 91
2020-10-11 05:00:00 16.2 3 Nordeste -- -- 0 946 -- 84
2020-10-11 04:00:00 17.1 8 Nordeste -- -- 0 946.1 -- 75
2020-10-11 03:00:00 16.9 3 Nordeste -- -- 0 946.4 -- 73
2020-10-11 02:00:00 18.4 0 Calma -- -- 0 946.6 -- 67
2020-10-11 01:00:00 19.6 2 Noroeste -- -- 0 946.8 -- 61
2020-10-11 00:00:00 20.5 3 Nordeste -- -- 0 946.5 -- 55
2020-10-10 23:00:00 20.8 0 Calma -- -- 0 946.7 -- 50
2020-10-10 22:00:00 23.4 2 Sudeste -- -- 0 946.5 -- 44
2020-10-10 21:00:00 24.8 5 Sur -- -- 0 946.5 -- 41
2020-10-10 20:00:00 26.4 7 Sur -- -- 0 946.1 -- 38
2020-10-10 19:00:00 28.8 9 Sudoeste -- -- 0 946 -- 36
2020-10-10 18:00:00 29.8 10 Sudoeste -- -- 0 945.9 -- 35
2020-10-10 17:00:00 29.6 6 Sudoeste -- -- 0 946.5 -- 36
2020-10-10 16:00:00 29.7 8 Sudoeste -- -- 0 946.9 -- 37
2020-10-10 15:00:00 28.4 9 Oeste -- -- 0 947.5 -- 39
2020-10-10 14:00:00 26.9 7 Oeste -- -- 0 948.2 -- 45
2020-10-10 13:00:00 25.1 6 Oeste -- -- 0 948.8 -- 50
2020-10-10 12:00:00 23.2 4 Noroeste -- -- 0 948.9 -- 53
2020-10-10 11:00:00 19.6 3 Norte -- -- 0 948.5 -- 64
2020-10-10 10:00:00 16.4 3 Nordeste -- -- 0 948.1 -- 74
2020-10-10 09:00:00 13.5 0 Calma -- -- 0 947.7 -- 79
2020-10-10 08:00:00 13.4 3 Norte -- -- 0 947.5 -- 78
2020-10-10 07:00:00 13.9 2 Sudoeste -- -- 0 947 -- 74
2020-10-10 06:00:00 14.4 4 Nordeste -- -- 0 947.1 -- 70
2020-10-10 05:00:00 15 2 Sur -- -- 0 947 -- 68
2020-10-10 04:00:00 15.9 2 Norte -- -- 0 947.3 -- 65
2020-10-10 03:00:00 16.4 0 Calma -- -- 0 947.5 -- 62
2020-10-10 02:00:00 17.2 0 Calma -- -- 0 947.9 -- 57
2020-10-10 01:00:00 18.5 6 Este -- -- 0 948.2 -- 55
2020-10-10 00:00:00 19.4 2 Sur -- -- 0 948.4 -- 51
2020-10-09 23:00:00 20.2 0 Calma -- -- 0 948.5 -- 49
2020-10-09 22:00:00 22.2 4 Nordeste -- -- 0 948.3 -- 45
2020-10-09 21:00:00 24.9 6 Sur -- -- 0 948.5 -- 39
2020-10-09 20:00:00 26.2 9 Sur -- -- 0 948.1 -- 38
2020-10-09 19:00:00 27.6 6 Sur -- -- 0 948.1 -- 36
2020-10-09 18:00:00 29.4 4 Sudoeste -- -- 0 948.2 -- 32
2020-10-09 17:00:00 30.3 0 Calma -- -- 0 948.2 -- 33
2020-10-09 16:00:00 30 3 Noroeste -- -- 0 948.2 -- 33
2020-10-09 15:00:00 28.5 6 Oeste -- -- 0 949 -- 36
2020-10-09 14:00:00 27.2 5 Oeste -- -- 0 949.4 -- 41
2020-10-09 13:00:00 24.8 6 Oeste -- -- 0 949.9 -- 47
2020-10-09 12:00:00 22.8 2 Noroeste -- -- 0 949.9 -- 53
2020-10-09 11:00:00 19.8 0 Calma -- -- 0 949.4 -- 64
2020-10-09 10:00:00 16.4 0 Calma -- -- 0 948.8 -- 76
2020-10-09 09:00:00 13 2 Sudoeste -- -- 0 948 -- 85
2020-10-09 08:00:00 13 2 Nordeste -- -- 0 947.9 -- 84
2020-10-09 07:00:00 13.5 0 Calma -- -- 0 947.9 -- 80
2020-10-09 06:00:00 14.5 3 Sur -- -- 0 947.8 -- 74
2020-10-09 05:00:00 15.8 2 Nordeste -- -- 0 947.8 -- 67
2020-10-09 04:00:00 16.6 0 Calma -- -- 0 948.1 -- 62
2020-10-09 03:00:00 17.5 0 Calma -- -- 0 948.2 -- 57
2020-10-09 02:00:00 17.6 3 Nordeste -- -- 0 948.3 -- 56
2020-10-09 01:00:00 19.2 0 Calma -- -- 0 948.7 -- 50
2020-10-09 00:00:00 19.4 2 Nordeste -- -- 0 948.9 -- 48
2020-10-08 23:00:00 21.4 3 Oeste -- -- 0 949.1 -- 42
2020-10-08 22:00:00 22.6 3 Nordeste -- -- 0 948.5 -- 41
2020-10-08 21:00:00 23.8 6 Sudeste -- -- 0 948.4 -- 37
2020-10-08 20:00:00 25.8 9 Sur -- -- 0 948.5 -- 35
2020-10-08 19:00:00 29.3 7 Sudoeste -- -- 0 948.3 -- 31
2020-10-08 18:00:00 30.1 7 Sudoeste -- -- 0 948.1 -- 31
2020-10-08 17:00:00 28.5 6 Oeste -- -- 0 948.3 -- 32
2020-10-08 16:00:00 29.6 8 Oeste -- -- 0 948.5 -- 32
2020-10-08 15:00:00 28.5 8 Oeste -- -- 0 949.2 -- 36
2020-10-08 14:00:00 27.1 8 Oeste -- -- 0 949.8 -- 39
2020-10-08 13:00:00 25.1 10 Sudoeste -- -- 0 950.1 -- 42
2020-10-08 12:00:00 23 6 Sudoeste -- -- 0 950 -- 50
2020-10-08 11:00:00 19.6 0 Calma -- -- 0 949.7 -- 63
2020-10-08 10:00:00 16.1 0 Calma -- -- 0 948.7 -- 73
2020-10-08 09:00:00 12.8 0 Calma -- -- 0 948 -- 79
2020-10-08 08:00:00 12.5 3 Nordeste -- -- 0 947.8 -- 79
2020-10-08 07:00:00 13.3 0 Calma -- -- 0 947.9 -- 74
2020-10-08 06:00:00 14.1 0 Calma -- -- 0 947.8 -- 72
2020-10-08 05:00:00 14.9 4 Nordeste -- -- 0 947.9 -- 68
2020-10-08 04:00:00 15.5 3 Nordeste -- -- 0 948.3 -- 66
2020-10-08 03:00:00 16.8 5 Nordeste -- -- 0 948.4 -- 61
2020-10-08 02:00:00 16.9 4 Sur -- -- 0 948.8 -- 58
2020-10-08 01:00:00 18.6 4 Nordeste -- -- 0 948.8 -- 54
2020-10-08 00:00:00 19.5 6 Nordeste -- -- 0 948.9 -- 50
2020-10-07 23:00:00 19.8 3 Oeste -- -- 0 949.2 -- 48
2020-10-07 22:00:00 21.7 2 Noroeste -- -- 0 949 -- 43
2020-10-07 21:00:00 23.3 4 Este -- -- 0 948.8 -- 33
2020-10-07 20:00:00 25.6 10 Sudeste -- -- 0 948.6 -- 29
2020-10-07 19:00:00 29.8 5 Sudoeste -- -- 0 948.4 -- 26
2020-10-07 18:00:00 30.6 4 Oeste -- -- 0 948.1 -- 26
2020-10-07 17:00:00 30.2 5 Oeste -- -- 0 948.4 -- 26
2020-10-07 16:00:00 29.3 7 Noroeste -- -- 0 948.8 -- 30
2020-10-07 15:00:00 28.2 5 Norte -- -- 0 949.2 -- 32
2020-10-07 14:00:00 27.2 3 Norte -- -- 0 949.8 -- 37
2020-10-07 13:00:00 25.1 11 Nordeste -- -- 0 950.3 -- 45
2020-10-07 12:00:00 22.4 8 Norte -- -- 0 950.1 -- 54
2020-10-07 11:00:00 19.2 3 Nordeste -- -- 0 949.5 -- 63
2020-10-07 10:00:00 15.1 5 Nordeste -- -- 0 949 -- 79
2020-10-07 09:00:00 12.2 5 Nordeste -- -- 0 948.5 -- 88
2020-10-07 08:00:00 12.2 8 Nordeste -- -- 0 948 -- 86
2020-10-07 07:00:00 11.9 2 Sur -- -- 0 948 -- 86
2020-10-07 06:00:00 13.3 11 Nordeste -- -- 0 947.9 -- 82
2020-10-07 05:00:00 13.2 0 Calma -- -- 0 947.7 -- 80
2020-10-07 04:00:00 13.3 0 Calma -- -- 0 948.2 -- 79
2020-10-07 03:00:00 13.9 0 Calma -- -- 0 948.5 -- 75
2020-10-07 02:00:00 14.9 0 Calma -- -- 0 948.7 -- 69
2020-10-07 01:00:00 16.5 6 Nordeste -- -- 0 949.2 -- 63
2020-10-07 00:00:00 17.3 4 Sur -- -- 0 949.1 -- 59
2020-10-06 23:00:00 18.1 3 Sur -- -- 0 949.4 -- 56
2020-10-06 22:00:00 19.9 6 Sudeste -- -- 0 949.2 -- 48
2020-10-06 21:00:00 21.1 9 Sudeste -- -- 0 949.4 -- 45
2020-10-06 20:00:00 23.1 6 Sur -- -- 0 948.9 -- 42
2020-10-06 19:00:00 26.9 4 Oeste -- -- 0 948.6 -- 36
2020-10-06 18:00:00 26.9 3 Noroeste -- -- 0 948.4 -- 35
2020-10-06 17:00:00 26.6 2 Noroeste -- -- 0 948.2 -- 36
2020-10-06 16:00:00 25.4 3 Oeste -- -- 0 948.9 -- 36
2020-10-06 15:00:00 24.4 5 Oeste -- -- 0 949.6 -- 37
2020-10-06 14:00:00 23.3 3 Noroeste -- -- 0 950.7 -- 40
2020-10-06 13:00:00 21 5 Noroeste -- -- 0 950.6 -- 45
2020-10-06 12:00:00 18.6 3 Oeste -- -- 0 950.4 -- 53
2020-10-06 11:00:00 15.6 0 Calma -- -- 0 949.5 -- 66
2020-10-06 10:00:00 12.4 0 Calma -- -- 0 948.3 -- 79
2020-10-06 09:00:00 9 4 Nordeste -- -- 0 947.5 -- 90
2020-10-06 08:00:00 8.9 0 Calma -- -- 0 947.3 -- 90
2020-10-06 07:00:00 9 4 Nordeste -- -- 0 946.7 -- 87
2020-10-06 06:00:00 9.4 2 Sur -- -- 0 946.5 -- 87
2020-10-06 05:00:00 9.8 0 Calma -- -- 0 946.5 -- 85
2020-10-06 04:00:00 9.9 3 Nordeste -- -- 0 946.9 -- 84
2020-10-06 03:00:00 10.4 0 Calma -- -- 0 947.2 -- 78
2020-10-06 02:00:00 11.6 3 Norte -- -- 0 947.3 -- 72
2020-10-06 01:00:00 11.5 0 Calma -- -- 0 947.1 -- 69
2020-10-06 00:00:00 12.6 0 Calma -- -- 0 947.4 -- 64
2020-10-05 23:00:00 13.4 0 Calma -- -- 0 947.2 -- 59
2020-10-05 22:00:00 15.1 2 Norte -- -- 0 947 -- 53
2020-10-05 21:00:00 15.3 2 Sudeste -- -- 0 946.4 -- 55
2020-10-05 20:00:00 17.9 4 Sur -- -- 0 946.4 -- 49
2020-10-05 19:00:00 21.3 5 Oeste -- -- 0 945.9 -- 41
2020-10-05 18:00:00 20.8 6 Sudoeste -- -- 0 945.4 -- 41
2020-10-05 17:00:00 20.5 0 Calma -- -- 0 944.9 -- 42
2020-10-05 16:00:00 20.2 5 Sudoeste -- -- 0 944.9 -- 43
2020-10-05 15:00:00 19 9 Sudoeste -- -- 0 944.8 0.7 47
2020-10-05 14:00:00 18.5 7 Oeste -- -- 0 944.7 1 49
2020-10-05 13:00:00 16.7 7 Oeste -- -- 0 944.8 2 57
2020-10-05 12:00:00 16.4 6 Sur -- -- 0 944.1 -- 61
2020-10-05 11:00:00 14.7 6 Sudoeste -- -- 0 943.7 -- 74
2020-10-05 10:00:00 12.7 0 Calma -- -- 0 942.8 -- 90
2020-10-05 09:00:00 10.2 0 Calma -- -- 0 941.3 -- 94
2020-10-05 08:00:00 10.5 0 Calma -- -- 0 941 -- 94
2020-10-05 07:00:00 10.6 5 Nordeste -- -- 0 940.5 -- 92
2020-10-05 06:00:00 11.5 4 Este -- -- 0 940.4 -- 90
2020-10-05 05:00:00 12.7 8 Sur -- -- 0 940.4 -- 85
2020-10-05 04:00:00 12.7 6 Sudoeste -- -- 0 939.8 -- 82
2020-10-05 03:00:00 13.1 6 Sudoeste -- -- 0 940.1 -- 80
2020-10-05 02:00:00 13.9 5 Sur -- -- 0 940.3 -- 76
2020-10-05 01:00:00 15.2 5 Sur -- -- 0 940.3 -- 70
2020-10-05 00:00:00 15.9 7 Sur -- -- 0 940.3 -- 67
2020-10-04 23:00:00 16.1 8 Sudoeste -- -- 0 940.3 -- 66
2020-10-04 22:00:00 15.8 4 Sur -- -- 0 940.1 -- 66
2020-10-04 21:00:00 17.2 17 Sudoeste -- -- 0 939.2 -- 59
2020-10-04 20:00:00 17.4 15 Sur -- -- 0 938.8 -- 57
2020-10-04 19:00:00 18.5 20 Sudoeste -- -- 0 938.6 -- 53
2020-10-04 18:00:00 18.5 15 Sudoeste -- -- 0 938.6 -- 53
2020-10-04 17:00:00 18.3 15 Sudoeste -- -- 0 938.3 -- 51
2020-10-04 16:00:00 18.2 14 Oeste -- -- 0 938.3 -- 50
2020-10-04 15:00:00 18.7 18 Sudoeste -- -- 0 938.1 -- 51
2020-10-04 14:00:00 17.5 18 Oeste -- -- 0 938.3 -- 53
2020-10-04 13:00:00 17 18 Sudoeste -- -- 0 939 -- 54
2020-10-04 12:00:00 14.9 19 Sudoeste -- -- 0 938.9 -- 60
2020-10-04 11:00:00 12.8 13 Sudoeste -- -- 0 938.4 -- 69
2020-10-04 10:00:00 11.1 6 Sur -- -- 0 938.2 -- 75
2020-10-04 09:00:00 7.7 0 Calma -- -- 0 937.1 -- 87
2020-10-04 08:00:00 8.3 3 Sur -- -- 0 937.4 -- 84
2020-10-04 07:00:00 8.8 8 Sur -- -- 0 936.8 -- 84
2020-10-04 06:00:00 8.3 4 Sur -- -- 0 936.3 -- 86
2020-10-04 05:00:00 9.4 6 Sur -- -- 0 936.9 -- 80
2020-10-04 04:00:00 10.8 7 Sudoeste -- -- 0 937.6 -- 72
2020-10-04 03:00:00 9.3 2 Sur -- -- 0 937.6 -- 80
2020-10-04 02:00:00 10.3 4 Sur -- -- 0 937.9 -- 74
2020-10-04 01:00:00 10.7 6 Sur -- -- 0 937.9 -- 74
2020-10-04 00:00:00 11.1 4 Sur -- -- 0 938.2 -- 74
2020-10-03 23:00:00 11.2 0 Calma -- -- 0 938.1 -- 73
2020-10-03 22:00:00 12.1 0 Calma -- -- 0 938.3 -- 69
2020-10-03 21:00:00 13.7 12 Sur -- -- 0 937.7 -- 60
2020-10-03 20:00:00 14.3 11 Sur -- -- 0 937.2 -- 55
2020-10-03 19:00:00 16.1 15 Sudoeste -- -- 0 937.2 -- 49
2020-10-03 18:00:00 16.3 15 Sudoeste -- -- 0 937 -- 47
2020-10-03 17:00:00 16 18 Sudoeste -- -- 0 937.3 -- 47
2020-10-03 16:00:00 15.7 18 Sudoeste -- -- 0 937.1 -- 50
2020-10-03 15:00:00 14.6 21 Sudoeste -- -- 0 937.1 -- 55
2020-10-03 14:00:00 14.6 19 Sudoeste -- -- 0 937.2 -- 57
2020-10-03 13:00:00 12.5 15 Sudoeste -- -- 0 936.7 -- 62
2020-10-03 12:00:00 11.7 14 Sudoeste -- -- 0 936.4 -- 71
2020-10-03 11:00:00 10 14 Sudoeste -- -- 0 935.5 -- 80
2020-10-03 10:00:00 9.1 15 Sudoeste -- -- 0 934.7 -- 84
2020-10-03 09:00:00 8.9 14 Sudoeste -- -- 0 933.7 -- 84
2020-10-03 08:00:00 8.9 12 Sudoeste -- -- 0 932.9 -- 85
2020-10-03 07:00:00 9.1 13 Sudoeste -- -- 0 932.1 -- 85
2020-10-03 06:00:00 9.3 13 Sudoeste -- -- 0 931.8 -- 82
2020-10-03 05:00:00 9.6 14 Sudoeste -- -- 0 931.5 -- 82
2020-10-03 04:00:00 10 14 Sudoeste -- -- 0 931.6 -- 81
2020-10-03 03:00:00 10.5 13 Sudoeste -- -- 0 931.6 -- 81
2020-10-03 02:00:00 11.2 15 Sudoeste -- -- 0 931.2 -- 78
2020-10-03 01:00:00 11.4 12 Sudoeste -- -- 0 931.3 -- 82
2020-10-03 00:00:00 -- 11 Sudoeste -- -- -- -- -- --
2020-10-02 23:00:00 13 14 Sudoeste -- -- -- 931.1 -- 75
2020-10-02 22:00:00 12.4 13 Sudoeste -- -- -- 930.4 -- 79
2020-10-02 21:00:00 12.4 9 Sudoeste -- -- 0 929 -- 80
2020-10-02 20:00:00 12.9 15 Sudoeste -- -- 0 928.4 -- 80
2020-10-02 19:00:00 12 12 Sur -- -- 0 927.8 -- 87
2020-10-02 18:00:00 12.9 14 Noroeste -- -- 0.8 927.9 -- 84
2020-10-02 17:00:00 14.6 18 Noroeste -- -- -- 926.2 -- 94
2020-10-02 16:00:00 16.4 38 Sudoeste -- -- 0.8 924.8 -- 96
2020-10-02 15:00:00 17.9 37 Sudoeste -- -- 0 925.5 -- 84
2020-10-02 14:00:00 18.2 29 Sudoeste -- -- 0 926.9 -- 81
2020-10-02 13:00:00 17 37 Sudoeste -- -- 0 927.8 -- 82
2020-10-02 12:00:00 15.4 27 Sudoeste -- -- 0 929.1 -- 85
2020-10-02 11:00:00 15.2 30 Sudoeste -- -- 0 930.5 -- 81
2020-10-02 10:00:00 15.5 33 Sudoeste -- -- 0 930.5 -- 80
2020-10-02 09:00:00 15.2 28 Sudoeste -- -- 0 930.9 -- 82
2020-10-02 08:00:00 15.5 22 Sudoeste -- -- 0 931.5 -- 81
2020-10-02 07:00:00 15.7 26 Sudoeste -- -- 0 931.9 -- 81
2020-10-02 06:00:00 16.3 23 Sudoeste -- -- 0 933 -- 79
2020-10-02 05:00:00 17 24 Sudoeste -- -- 0 934.2 -- 76
2020-10-02 04:00:00 18 18 Sudoeste -- -- 0 934.9 -- 74
2020-10-02 03:00:00 18.9 23 Sudoeste -- -- 0 935.5 -- 67
2020-10-02 02:00:00 19.5 23 Sudoeste -- -- 0 936.1 -- 63
2020-10-02 01:00:00 20.5 20 Sudoeste -- -- 0 937 -- 57
2020-10-02 00:00:00 20.5 15 Sudoeste -- -- 0 937.9 -- 54
2020-10-01 23:00:00 21.6 18 Sudoeste -- -- 0 938.2 -- 51
2020-10-01 22:00:00 21.5 16 Sudoeste -- -- 0 938.2 -- 50
2020-10-01 21:00:00 22.1 15 Sudoeste -- -- 0 938.2 -- 49
2020-10-01 20:00:00 23 16 Sudoeste -- -- 0 938.1 -- 48
2020-10-01 19:00:00 24.6 20 Sudoeste -- -- 0 937.8 -- 43
2020-10-01 18:00:00 25.5 19 Sudoeste -- -- 0 938.3 -- 41
2020-10-01 17:00:00 25.8 21 Sudoeste -- -- 0 938.9 -- 38
2020-10-01 16:00:00 25.8 22 Sudoeste -- -- 0 939.4 -- 42
2020-10-01 15:00:00 25.3 22 Sudoeste -- -- 0 939.8 -- 44
2020-10-01 14:00:00 24.3 21 Sudoeste -- -- 0 940.5 -- 51
2020-10-01 13:00:00 22.6 20 Sudoeste -- -- 0 941.3 -- 57
2020-10-01 12:00:00 21.2 16 Sudoeste -- -- 0 941 -- 69
2020-10-01 11:00:00 18.9 9 Sudoeste -- -- 0 940.8 -- 75
2020-10-01 10:00:00 15.3 0 Calma -- -- 0 940.1 -- 84
2020-10-01 09:00:00 13.2 3 Sur -- -- 0 939.8 -- 87
2020-10-01 08:00:00 13.3 0 Calma -- -- 0 939.6 -- 85
2020-10-01 07:00:00 14.2 0 Calma -- -- 0 939.9 -- 79
2020-10-01 06:00:00 15 0 Calma -- -- 0 940 -- 74
2020-10-01 05:00:00 14.2 4 Nordeste -- -- 0 940.1 -- 72
2020-10-01 04:00:00 16 0 Calma -- -- 0 941.2 -- 67
2020-10-01 03:00:00 17.2 0 Calma -- -- 0 941.4 -- 63
2020-10-01 02:00:00 17 6 Nordeste -- -- 0 941.8 -- 64
2020-10-01 01:00:00 18.2 4 Sur -- -- 0 942.4 -- 60
2020-10-01 00:00:00 18.3 2 Nordeste -- -- 0 942.1 -- 59
2020-09-30 23:00:00 18.7 4 Nordeste -- -- 0 942.7 -- 56
2020-09-30 22:00:00 20.7 7 Sur -- -- 0 942.7 -- 51
2020-09-30 21:00:00 22 8 Sur -- -- 0 942.8 -- 49
2020-09-30 20:00:00 23 10 Sur -- -- 0 942.7 -- 48
2020-09-30 19:00:00 25.3 5 Sur -- -- 0 942.5 -- 45
2020-09-30 18:00:00 25.1 10 Sudoeste -- -- 0 942.7 -- 47
2020-09-30 17:00:00 25.5 11 Sudoeste -- -- 0 943 -- 44
2020-09-30 16:00:00 25.5 13 Sudoeste -- -- 0 943.4 -- 44
2020-09-30 15:00:00 25.6 12 Sudoeste -- -- 0 943.7 -- 44
2020-09-30 14:00:00 25.4 13 Oeste -- -- 0 944.4 -- 47
2020-09-30 13:00:00 23.7 7 Oeste -- -- 0 944.5 -- 53
2020-09-30 12:00:00 21.9 4 Noroeste -- -- 0 944.4 -- 56
2020-09-30 11:00:00 19.4 2 Norte -- -- 0 944 -- 61
2020-09-30 10:00:00 15.7 0 Calma -- -- 0 943.7 -- 68
2020-09-30 09:00:00 13.4 2 Nordeste -- -- 0 943.1 -- 70
2020-09-30 08:00:00 13.1 3 Nordeste -- -- 0 942.9 -- 69
2020-09-30 07:00:00 13.9 0 Calma -- -- 0 942.8 -- 66
2020-09-30 06:00:00 14.6 3 Norte -- -- 0 942.8 -- 62
2020-09-30 05:00:00 15.6 3 Sur -- -- 0 942.7 -- 60
2020-09-30 04:00:00 16.2 3 Este -- -- 0 943.1 -- 55
2020-09-30 03:00:00 17.1 2 Sur -- -- 0 943 -- 51
2020-09-30 02:00:00 17.9 0 Calma -- -- 0 943.1 -- 49
2020-09-30 01:00:00 19.2 0 Calma -- -- 0 943.6 -- 47
2020-09-30 00:00:00 19.5 3 Norte -- -- 0 943.7 -- 45